Nearby METAR Reports

 

KSJC - San Jose, California, USA
Distance from station: NE 9mi, 14km
Updated: Thu, 30-Jun-2022 4:53pm MST
Few Clouds
Few Clouds
 Wind from NNW
Wind: NNW 15 mph , 24 km/h
Temperature: 70°F , 21°C
Dew Point: 54°F , 12°C
Humidity: 57%
Barometer: 30.03 inHg , 1016.9 hPa
Clouds: Few Clouds
Visibility: 10 miles , 16 km
Cloud details: Few Clouds 800 ft
2022/06/30 23:53 KSJC 302353Z 33013KT 10SM FEW008 21/12 A3003 RMK AO2 SLP166 T02060117 10233 20194 56004
KNUQ - Moffett Nas/Mtn, California, USA
Distance from station: N 9mi, 14km
Updated: Tue, 28-Jun-2022 4:55am MST
NOT Current

 Wind from calm
Wind: Calm
Temperature: 59°F , 15°C
Dew Point: 54°F , 12°C
Humidity: 82%
Barometer: 30.06 inHg , 1017.9 hPa
Visibility: 10 miles , 16 km
2022/06/28 11:55 KNUQ 281155Z AUTO 00000KT 10SM 15/12 A3006 RMK AO2
 
KPAO - Palo Alto, California, USA
Distance from station: NNW 14mi, 23km
Updated: Wed, 29-Jun-2022 4:47pm MST
NOT Current
Clear
Clear
 Wind from NNW
Wind: NNW 21 mph , 33 km/h
Temperature: 66°F , 19°C
Dew Point: 57°F , 14°C
Humidity: 73%
Barometer: 30.01 inHg , 1016.3 hPa
Clouds: Clear
Visibility: 10 miles , 16 km
2022/06/29 23:47 KPAO 292347Z 34018KT 10SM SKC 19/14 A3001
KRHV - San Jose/Reid, California, USA
Distance from station: ENE 12mi, 19km
Updated: Thu, 30-Jun-2022 5:47pm MST
Clear
Clear
 Wind from NW
Wind: NW 12 mph , 19 km/h
Temperature: 70°F , 21°C
Dew Point: 52°F , 11°C
Humidity: 53%
Barometer: 30.02 inHg , 1016.6 hPa
Clouds: Clear
Visibility: 10 miles , 16 km
2022/07/01 00:47 KRHV 010047Z 32010KT 10SM SKC 21/11 A3002
 
KOAK - Oakland, California, USA
Distance from station: NNW 31mi, 50km
Updated: Thu, 30-Jun-2022 4:53pm MST
Mostly cloudy
Mostly cloudy
 Wind from W
Wind: W 14 mph , 22 km/h
Temperature: 61°F , 16°C
Dew Point: 52°F , 11°C
Humidity: 72%
Barometer: 30.05 inHg , 1017.6 hPa
Clouds: Mostly cloudy
Visibility: 10 miles , 16 km
Cloud details: Mostly cloudy 1400 ft
2022/06/30 23:53 KOAK 302353Z 28012KT 10SM BKN014 16/11 A3005 RMK AO2 SLP176 T01610106 10167 20144 58008
KSQL - San Carlos Airpo, California, USA
Distance from station: NW 21mi, 34km
Updated: Thu, 30-Jun-2022 4:58pm MST
Few Clouds
Few Clouds
 Wind from W
Wind: W 17 mph , 28 km/h, Gust: 25 mph , 41 km/h
Temperature: 63°F , 17°C
Dew Point: 50°F , 10°C
Humidity: 64%
Barometer: 30.03 inHg , 1016.9 hPa
Clouds: Few Clouds
Visibility: 10 miles , 16 km
Cloud details: Few Clouds 1400 ft
2022/06/30 23:58 KSQL 302358Z 26015G22KT 10SM FEW014 17/10 A3003
 
KSFO - San Francisco, California, USA
Distance from station: NW 30mi, 49km
Updated: Thu, 30-Jun-2022 4:56pm MST
Mostly cloudy
Mostly cloudy
 Wind from W
Wind: W 16 mph , 26 km/h
Temperature: 61°F , 16°C
Dew Point: 50°F , 10°C
Humidity: 68%
Barometer: 30.04 inHg , 1017.3 hPa
Clouds: Mostly cloudy
Visibility: 10 miles , 16 km
Cloud details: Few Clouds 800 ft
Mostly cloudy 1400 ft
2022/06/30 23:56 KSFO 302356Z 27014KT 10SM FEW008 BKN014 16/10 A3004 RMK AO2 SLP173 T01610100 10167 20144 58009
KE16 - San Martin, California, USA
Distance from station: ESE 27mi, 43km
Updated: Thu, 30-Jun-2022 5:35pm MST
Clear
Clear
 Wind from NNW
Wind: NNW 16 mph , 26 km/h, Gust: 23 mph , 37 km/h
Temperature: 77°F , 25°C
Dew Point: 52°F , 11°C
Humidity: 42%
Barometer: 30.00 inHg , 1015.9 hPa
Clouds: Clear
Visibility: 10 miles , 16 km
2022/07/01 00:35 KE16 010035Z AUTO 34014G20KT 10SM CLR 25/11 A3000 RMK AO2 PWINO PNO
 
KWVI - Watsonville, California, USA
Distance from station: SSE 27mi, 44km
Updated: Thu, 30-Jun-2022 4:53pm MST
Clear
Clear
 Wind from SSW
Wind: SSW 8 mph , 13 km/h
Temperature: 66°F , 19°C
Dew Point: 52°F , 11°C
Humidity: 60%
Barometer: 30.04 inHg , 1017.3 hPa
Clouds: Clear
Visibility: 10 miles , 16 km
2022/06/30 23:53 KWVI 302353Z AUTO 21007KT 170V230 10SM CLR 19/11 A3004 RMK AO2 SLP171 T01890106 10194 20139 56012
KHAF - Half Moon Bay, California, USA
Distance from station: WNW 31mi, 50km
Updated: Thu, 30-Jun-2022 5:35pm MST
Mist, Overcast
Mist, Overcast
 Wind from NW
Wind: NW 10 mph , 17 km/h
Temperature: 57°F , 14°C
Dew Point: 54°F , 12°C
Humidity: 88%
Barometer: 30.08 inHg , 1018.6 hPa
Summary: Mist
Clouds: Overcast
Visibility: 6 miles , 10 km
Cloud details: Overcast 1200 ft
2022/07/01 00:35 KHAF 010035Z AUTO 31009KT 6SM BR OVC012 14/12 A3008 RMK AO2
 
KHWD - Hayward, California, USA
Distance from station: N 28mi, 44km
Updated: Thu, 30-Jun-2022 4:54pm MST
Partly cloudy
Partly cloudy
 Wind from WNW
Wind: WNW 15 mph , 24 km/h
Temperature: 63°F , 17°C
Dew Point: 52°F , 11°C
Humidity: 68%
Barometer: 30.04 inHg , 1017.3 hPa
Clouds: Partly cloudy
Visibility: 10 miles , 16 km
Cloud details: Partly cloudy 1300 ft
2022/06/30 23:54 KHWD 302354Z 29013KT 10SM SCT013 17/11 A3004 RMK AO2 SLP183 T01670106 10178 20156 58008
KLVK - Livermore, California, USA
Distance from station: NNE 31mi, 51km
Updated: Thu, 30-Jun-2022 4:53pm MST
Clear
Clear
 Wind from WNW
Wind: WNW 17 mph , 28 km/h
Temperature: 70°F , 21°C
Dew Point: 50°F , 10°C
Humidity: 50%
Barometer: 29.99 inHg , 1015.6 hPa
Clouds: Clear
Visibility: 10 miles , 16 km
2022/06/30 23:53 KLVK 302353Z 30015KT 10SM CLR 21/10 A2999 RMK AO2 SLP153 T02110100 10233 20161 56007